createdAt,value
2023-05-23T00:02:18.449Z,16.90
2023-05-23T00:04:47.136Z,15.43
2023-05-23T00:07:13.726Z,14.95
2023-05-23T00:09:40.375Z,14.68
2023-05-23T00:12:07.128Z,14.52
2023-05-23T00:14:35.346Z,14.30
2023-05-23T00:17:02.062Z,14.95
2023-05-23T00:19:28.682Z,14.77
2023-05-23T00:21:58.693Z,13.75
2023-05-23T00:24:25.870Z,15.70
2023-05-23T00:26:52.565Z,13.43
2023-05-23T00:29:19.698Z,14.20
2023-05-23T00:31:49.008Z,13.35
2023-05-23T00:34:18.851Z,13.65
2023-05-23T00:36:48.459Z,12.93
2023-05-23T00:39:19.799Z,14.93
2023-05-23T00:41:52.912Z,12.95
2023-05-23T00:44:21.368Z,14.63
2023-05-23T00:46:56.390Z,14.00
2023-05-23T00:49:23.919Z,14.45
2023-05-23T00:51:52.005Z,14.63
2023-05-23T00:54:29.590Z,13.18
2023-05-23T00:56:56.283Z,12.70
2023-05-23T00:59:26.481Z,14.02
2023-05-23T01:01:55.922Z,14.35
2023-05-23T01:04:26.595Z,16.02
2023-05-23T01:06:54.988Z,15.63
2023-05-23T01:09:23.552Z,15.18
2023-05-23T01:11:53.093Z,16.05
2023-05-23T01:14:42.355Z,15.52
2023-05-23T01:17:21.226Z,15.20
2023-05-23T01:20:05.984Z,16.75
2023-05-23T01:22:35.804Z,15.48
2023-05-23T01:25:24.502Z,14.85
2023-05-23T01:28:01.200Z,14.80
2023-05-23T01:30:32.286Z,14.73
2023-05-23T01:32:59.563Z,15.48
2023-05-23T01:35:27.541Z,15.55
2023-05-23T01:37:57.526Z,15.95
2023-05-23T01:40:25.850Z,13.70
2023-05-23T01:42:59.900Z,16.08
2023-05-23T01:45:28.250Z,14.93
2023-05-23T01:47:56.382Z,14.98
2023-05-23T01:50:24.587Z,14.00
2023-05-23T01:52:54.832Z,15.00
2023-05-23T01:55:26.638Z,14.75
2023-05-23T01:57:57.936Z,14.55
2023-05-23T02:00:25.117Z,14.02
2023-05-23T02:02:54.575Z,15.18
2023-05-23T02:05:23.793Z,15.82
2023-05-23T02:07:50.450Z,16.48
2023-05-23T02:10:17.065Z,17.15
2023-05-23T02:12:43.676Z,16.35
2023-05-23T02:15:10.705Z,17.25
2023-05-23T02:17:38.811Z,16.17
2023-05-23T02:20:06.811Z,17.00
2023-05-23T02:22:33.452Z,16.73
2023-05-23T02:24:59.981Z,16.65
2023-05-23T02:27:26.547Z,16.92
2023-05-23T02:29:55.297Z,16.00
2023-05-23T02:32:21.826Z,16.58
2023-05-23T02:34:50.468Z,16.25
2023-05-23T02:37:17.052Z,18.33
2023-05-23T02:39:44.017Z,15.93
2023-05-23T02:42:10.585Z,17.83
2023-05-23T02:44:37.150Z,16.75
2023-05-23T02:47:03.796Z,16.08
2023-05-23T02:49:30.405Z,17.35
2023-05-23T02:51:57.009Z,17.20
2023-05-23T02:54:23.604Z,16.38
2023-05-23T02:56:52.488Z,16.95
2023-05-23T02:59:19.125Z,16.88
2023-05-23T03:01:45.745Z,17.42
2023-05-23T03:04:13.749Z,18.00
2023-05-23T03:06:42.146Z,17.65
2023-05-23T03:09:09.508Z,16.58
2023-05-23T03:11:37.181Z,17.20
2023-05-23T03:14:03.712Z,17.88
2023-05-23T03:16:30.275Z,17.90
2023-05-23T03:19:00.765Z,17.70
2023-05-23T03:21:32.896Z,17.77
2023-05-23T03:23:59.384Z,17.88
2023-05-23T03:26:28.426Z,18.17
2023-05-23T03:28:54.936Z,17.67
2023-05-23T03:31:21.576Z,17.98
2023-05-23T03:33:48.131Z,17.70
2023-05-23T03:36:14.743Z,17.17
2023-05-23T03:38:41.827Z,18.67
2023-05-23T03:41:08.497Z,18.08
2023-05-23T03:43:34.994Z,18.75
2023-05-23T03:46:01.670Z,18.65
2023-05-23T03:48:31.275Z,16.85
2023-05-23T03:51:01.200Z,18.63
2023-05-23T03:53:29.864Z,19.42
2023-05-23T03:55:56.354Z,19.52
2023-05-23T03:58:22.881Z,19.30
2023-05-23T04:00:49.492Z,17.63
2023-05-23T04:03:17.615Z,18.40
2023-05-23T04:05:44.503Z,19.42
2023-05-23T04:08:11.209Z,19.77
2023-05-23T04:10:37.712Z,17.80
2023-05-23T04:13:04.628Z,20.63
2023-05-23T04:15:34.323Z,20.85
2023-05-23T04:18:04.066Z,19.35
2023-05-23T04:20:33.563Z,20.17
2023-05-23T04:23:03.106Z,19.98
2023-05-23T04:25:31.074Z,19.38
2023-05-23T04:27:58.129Z,19.92
2023-05-23T04:30:24.686Z,20.42
2023-05-23T04:32:51.194Z,19.48
2023-05-23T04:35:17.734Z,20.00
2023-05-23T04:37:45.636Z,19.67
2023-05-23T04:40:13.580Z,20.35
2023-05-23T04:42:42.389Z,20.15
2023-05-23T04:45:09.995Z,21.38
2023-05-23T04:47:37.581Z,21.25
2023-05-23T04:50:05.505Z,20.02
2023-05-23T04:52:34.097Z,18.98
2023-05-23T04:55:04.227Z,20.55
2023-05-23T04:57:34.163Z,20.25
2023-05-23T05:00:01.782Z,21.60
2023-05-23T05:02:28.361Z,21.88
2023-05-23T05:04:54.883Z,20.30
2023-05-23T05:07:21.431Z,20.40
2023-05-23T05:09:47.987Z,20.42
2023-05-23T05:12:14.469Z,21.80
2023-05-23T05:14:41.182Z,20.48
2023-05-23T05:17:08.109Z,21.38
2023-05-23T05:19:34.760Z,20.33
2023-05-23T05:22:04.418Z,22.17
2023-05-23T05:24:33.873Z,21.27
2023-05-23T05:27:04.355Z,20.85
2023-05-23T05:29:33.900Z,22.08
2023-05-23T05:32:03.514Z,21.38
2023-05-23T05:34:33.437Z,20.15
2023-05-23T05:37:06.193Z,21.58
2023-05-23T05:39:32.686Z,22.65
2023-05-23T05:42:01.626Z,22.48
2023-05-23T05:44:28.138Z,21.45
2023-05-23T05:46:55.280Z,21.55
2023-05-23T05:49:22.630Z,21.45
2023-05-23T05:51:49.299Z,21.92
2023-05-23T05:54:18.256Z,22.10
2023-05-23T05:56:46.981Z,21.38
2023-05-23T05:59:13.558Z,22.00
2023-05-23T06:01:40.917Z,22.10
2023-05-23T06:04:08.000Z,21.63
2023-05-23T06:06:34.676Z,20.95
2023-05-23T06:09:01.752Z,21.60
2023-05-23T06:11:28.283Z,20.88
2023-05-23T06:13:54.917Z,20.80
2023-05-23T06:16:21.617Z,21.05
2023-05-23T06:18:48.186Z,21.65
2023-05-23T06:21:14.756Z,22.05
2023-05-23T06:23:41.433Z,23.20
2023-05-23T06:26:10.812Z,21.88
2023-05-23T06:28:40.358Z,22.08
2023-05-23T06:31:07.067Z,23.70
2023-05-23T06:33:33.599Z,22.92
2023-05-23T06:36:03.259Z,24.38
2023-05-23T06:38:33.756Z,22.25
2023-05-23T06:41:04.364Z,23.83
2023-05-23T06:43:31.733Z,24.08
2023-05-23T06:46:04.559Z,22.63
2023-05-23T06:48:34.165Z,22.17
2023-05-23T06:51:03.900Z,22.98
2023-05-23T06:53:35.538Z,21.77
2023-05-23T06:56:02.093Z,22.08
2023-05-23T06:58:31.737Z,23.15
2023-05-23T07:01:02.947Z,21.88
2023-05-23T07:03:31.570Z,21.88
2023-05-23T07:05:58.544Z,22.88
2023-05-23T07:08:26.196Z,22.25
2023-05-23T07:10:53.004Z,23.30
2023-05-23T07:13:19.543Z,24.60
2023-05-23T07:15:46.543Z,23.23
2023-05-23T07:18:13.708Z,23.88
2023-05-23T07:20:40.828Z,26.50
2023-05-23T07:23:07.851Z,24.70
2023-05-23T07:25:34.630Z,25.55
2023-05-23T07:28:04.831Z,25.88
2023-05-23T07:30:33.350Z,24.25
2023-05-23T07:33:03.113Z,24.27
2023-05-23T07:35:33.772Z,23.92
2023-05-23T07:38:05.352Z,22.98
2023-05-23T07:40:32.001Z,22.60
2023-05-23T07:43:00.816Z,25.35
2023-05-23T07:45:27.319Z,22.98
2023-05-23T07:47:54.019Z,25.13
2023-05-23T07:50:20.613Z,25.38
2023-05-23T07:52:47.110Z,24.67
2023-05-23T07:55:13.647Z,22.98
2023-05-23T07:57:40.119Z,23.90
2023-05-23T08:00:10.034Z,24.45
2023-05-23T08:02:36.676Z,25.70
2023-05-23T08:05:03.299Z,24.40
2023-05-23T08:07:32.943Z,25.02
2023-05-23T08:10:00.189Z,24.67
2023-05-23T08:12:26.844Z,23.95
2023-05-23T08:14:53.411Z,24.45
2023-05-23T08:17:20.073Z,26.42
2023-05-23T08:19:49.056Z,23.77
2023-05-23T08:22:15.791Z,23.65
2023-05-23T08:24:42.322Z,25.92
2023-05-23T08:27:09.480Z,25.35
2023-05-23T08:29:37.345Z,23.98
2023-05-23T08:32:04.196Z,24.65
2023-05-23T08:34:33.918Z,23.55
2023-05-23T08:37:03.522Z,25.48
2023-05-23T08:39:32.962Z,23.33
2023-05-23T08:42:03.228Z,23.50
2023-05-23T08:44:34.365Z,24.73
2023-05-23T08:47:07.794Z,24.23
2023-05-23T08:49:34.840Z,23.90
2023-05-23T08:52:05.246Z,24.55
2023-05-23T08:54:32.721Z,25.88
2023-05-23T08:57:02.432Z,23.13
2023-05-23T08:59:32.603Z,24.10
2023-05-23T09:02:05.012Z,22.80
2023-05-23T09:04:34.269Z,23.25
2023-05-23T09:07:04.370Z,21.73
2023-05-23T09:09:34.217Z,22.88
2023-05-23T09:12:03.596Z,24.60
2023-05-23T09:14:33.618Z,23.27
2023-05-23T09:17:04.515Z,23.10
2023-05-23T09:19:31.779Z,22.17
2023-05-23T09:21:59.430Z,23.65
2023-05-23T09:24:34.181Z,22.98
2023-05-23T09:27:05.967Z,22.27
2023-05-23T09:29:32.585Z,24.38
2023-05-23T09:32:18.874Z,23.58
2023-05-23T09:35:05.938Z,23.38
2023-05-23T09:37:45.848Z,24.05
2023-05-23T09:40:14.434Z,24.50
2023-05-23T09:42:45.785Z,24.02
2023-05-23T09:45:17.093Z,24.85
2023-05-23T09:47:53.426Z,26.05
2023-05-23T09:50:21.282Z,26.33
2023-05-23T09:52:48.225Z,25.17
2023-05-23T09:55:15.257Z,24.38
2023-05-23T09:57:43.597Z,24.83
2023-05-23T10:00:11.468Z,25.38
2023-05-23T10:03:13.479Z,25.50
2023-05-23T10:05:47.745Z,25.70
2023-05-23T10:08:19.152Z,24.02
2023-05-23T10:11:14.981Z,25.48
2023-05-23T10:13:45.816Z,23.77
2023-05-23T10:16:19.171Z,24.02
2023-05-23T10:18:53.101Z,24.80
2023-05-23T10:21:24.859Z,23.50
2023-05-23T10:23:51.897Z,25.50
2023-05-23T10:26:18.664Z,23.73
2023-05-23T10:28:46.735Z,26.00
2023-05-23T10:31:13.282Z,25.42
2023-05-23T10:33:49.572Z,24.90
2023-05-23T10:36:32.768Z,23.95
2023-05-23T10:39:09.544Z,23.52
2023-05-23T10:41:47.481Z,25.15
2023-05-23T10:44:14.001Z,24.00
2023-05-23T10:47:00.406Z,24.92
2023-05-23T10:49:44.836Z,23.75
2023-05-23T10:52:14.193Z,22.90
2023-05-23T10:54:51.722Z,23.98
2023-05-23T10:57:21.106Z,22.45
2023-05-23T10:59:51.038Z,23.98
2023-05-23T11:02:27.411Z,23.25
2023-05-23T11:05:15.728Z,23.92
2023-05-23T11:07:42.720Z,23.90
2023-05-23T11:10:16.790Z,22.98
2023-05-23T11:12:46.409Z,22.52
2023-05-23T11:15:20.661Z,23.55
2023-05-23T11:17:52.837Z,23.08
2023-05-23T11:20:23.513Z,23.27
2023-05-23T11:22:55.736Z,22.55
2023-05-23T11:25:40.996Z,22.42
2023-05-23T11:28:07.762Z,24.13
2023-05-23T11:30:39.502Z,25.63
2023-05-23T11:33:14.123Z,22.85
2023-05-23T11:35:48.805Z,22.85
2023-05-23T11:38:19.148Z,24.67
2023-05-23T11:40:48.717Z,24.52
2023-05-23T11:43:18.303Z,23.20
2023-05-23T11:45:46.970Z,24.40
2023-05-23T11:48:16.385Z,23.48
2023-05-23T11:50:47.349Z,23.90
2023-05-23T11:53:17.530Z,25.30
2023-05-23T11:55:53.294Z,23.05
2023-05-23T11:58:27.020Z,25.73
2023-05-23T12:01:06.462Z,23.02
2023-05-23T12:03:34.686Z,24.80
2023-05-23T12:06:04.634Z,25.63
2023-05-23T12:08:34.055Z,24.83
2023-05-23T12:11:03.889Z,25.95
2023-05-23T12:13:33.573Z,25.25
2023-05-23T12:16:04.552Z,24.02
2023-05-23T12:18:32.757Z,23.17
2023-05-23T12:21:08.414Z,24.15
2023-05-23T12:23:35.840Z,25.75
2023-05-23T12:26:06.902Z,24.55
2023-05-23T12:28:38.833Z,25.42
2023-05-23T12:31:22.006Z,25.70
2023-05-23T12:33:50.077Z,24.63
2023-05-23T12:36:29.583Z,25.58
2023-05-23T12:39:02.901Z,25.35
2023-05-23T12:41:33.857Z,24.40
2023-05-23T12:44:04.705Z,25.73
2023-05-23T12:46:31.522Z,25.30
2023-05-23T12:49:01.313Z,23.83
2023-05-23T12:51:27.865Z,24.15
2023-05-23T12:53:54.789Z,24.00
2023-05-23T12:56:22.498Z,26.42
2023-05-23T12:58:49.095Z,25.35
2023-05-23T13:01:15.757Z,25.17
2023-05-23T13:03:42.361Z,22.98
2023-05-23T13:06:09.528Z,23.98
2023-05-23T13:08:36.241Z,22.30
2023-05-23T13:11:02.964Z,23.85
2023-05-23T13:13:34.603Z,24.33
2023-05-23T13:16:01.661Z,24.83
2023-05-23T13:18:31.364Z,24.83
2023-05-23T13:20:58.042Z,25.35
2023-05-23T13:23:25.815Z,23.65
2023-05-23T13:25:53.068Z,23.17
2023-05-23T13:28:19.634Z,25.42
2023-05-23T13:30:47.278Z,22.90
2023-05-23T13:33:14.193Z,23.02
2023-05-23T13:35:41.198Z,24.55
2023-05-23T13:38:08.161Z,22.38
2023-05-23T13:40:34.759Z,23.60
2023-05-23T13:43:01.580Z,23.45
2023-05-23T13:45:29.610Z,22.73
2023-05-23T13:47:56.433Z,23.02
2023-05-23T13:50:23.628Z,24.08
2023-05-23T13:52:50.184Z,23.92
2023-05-23T13:55:17.494Z,25.02
2023-05-23T13:57:44.177Z,22.92
2023-05-23T14:00:11.591Z,22.70
2023-05-23T14:02:38.611Z,23.58
2023-05-23T14:05:07.241Z,22.35
2023-05-23T14:07:33.993Z,23.13
2023-05-23T14:10:05.129Z,23.35
2023-05-23T14:12:31.772Z,23.77
2023-05-23T14:14:58.407Z,21.85
2023-05-23T14:17:25.383Z,22.08
2023-05-23T14:19:52.015Z,21.25
2023-05-23T14:22:18.512Z,22.13
2023-05-23T14:24:45.022Z,19.38
2023-05-23T14:27:11.655Z,21.80
2023-05-23T14:29:38.798Z,22.45
2023-05-23T14:32:05.875Z,22.50
2023-05-23T14:34:32.629Z,20.33
2023-05-23T14:37:01.754Z,21.75
2023-05-23T14:39:29.365Z,22.48
2023-05-23T14:41:56.707Z,19.65
2023-05-23T14:44:23.403Z,20.70
2023-05-23T14:46:50.358Z,20.30
2023-05-23T14:49:20.004Z,19.98
2023-05-23T14:51:51.217Z,19.85
2023-05-23T14:54:19.177Z,18.50
2023-05-23T14:56:46.150Z,18.27
2023-05-23T14:59:12.932Z,17.65
2023-05-23T15:01:40.684Z,18.95
2023-05-23T15:04:09.599Z,17.33
2023-05-23T15:06:37.960Z,18.73
2023-05-23T15:09:04.908Z,18.35
2023-05-23T15:11:34.877Z,17.65
2023-05-23T15:14:04.684Z,17.58
2023-05-23T15:16:36.824Z,17.05
2023-05-23T15:19:04.870Z,17.98
2023-05-23T15:21:34.954Z,15.55
2023-05-23T15:24:03.436Z,17.30
2023-05-23T15:26:30.074Z,18.30
2023-05-23T15:28:57.177Z,16.38
2023-05-23T15:31:23.760Z,17.52
2023-05-23T15:33:50.344Z,17.60
2023-05-23T15:36:16.896Z,17.70
2023-05-23T15:38:43.952Z,16.83
2023-05-23T15:41:11.294Z,16.77
2023-05-23T15:43:37.887Z,16.77
2023-05-23T15:46:07.622Z,17.58
2023-05-23T15:48:37.418Z,17.92
2023-05-23T15:51:07.084Z,16.67
2023-05-23T15:53:47.861Z,17.95
2023-05-23T15:56:23.461Z,17.88
2023-05-23T15:58:50.037Z,18.00
2023-05-23T16:01:16.553Z,18.80
2023-05-23T16:03:43.111Z,19.73
2023-05-23T16:06:09.598Z,20.10
2023-05-23T16:08:36.140Z,19.00
2023-05-23T16:11:09.805Z,18.75
2023-05-23T16:13:36.372Z,18.63
2023-05-23T16:16:10.586Z,17.67
2023-05-23T16:18:37.191Z,19.33
2023-05-23T16:21:06.961Z,20.17
2023-05-23T16:23:35.688Z,21.50
2023-05-23T16:26:02.192Z,20.23
2023-05-23T16:28:29.424Z,20.48
2023-05-23T16:30:56.691Z,19.55
2023-05-23T16:33:23.241Z,21.08
2023-05-23T16:35:49.814Z,20.83
2023-05-23T16:38:16.383Z,20.58
2023-05-23T16:40:44.375Z,21.30
2023-05-23T16:43:12.326Z,19.55
2023-05-23T16:45:41.637Z,20.35
2023-05-23T16:48:08.577Z,20.67
2023-05-23T16:50:37.651Z,19.10
2023-05-23T16:53:04.176Z,19.35
2023-05-23T16:55:30.718Z,19.67
2023-05-23T16:58:09.900Z,18.35
2023-05-23T17:00:39.675Z,19.42
2023-05-23T17:03:08.753Z,20.05
2023-05-23T17:05:36.237Z,21.55
2023-05-23T17:08:03.117Z,21.17
2023-05-23T17:10:29.633Z,21.05
2023-05-23T17:12:56.182Z,19.55
2023-05-23T17:15:22.792Z,18.65
2023-05-23T17:17:49.456Z,20.98
2023-05-23T17:20:15.952Z,18.63
2023-05-23T17:22:42.530Z,19.88
2023-05-23T17:25:09.341Z,20.05
2023-05-23T17:27:38.262Z,18.98
2023-05-23T17:30:07.628Z,18.05
2023-05-23T17:32:35.146Z,17.75
2023-05-23T17:35:02.141Z,18.83
2023-05-23T17:37:28.705Z,18.42
2023-05-23T17:39:57.699Z,18.75
2023-05-23T17:42:24.922Z,18.52
2023-05-23T17:44:51.476Z,18.90
2023-05-23T17:47:18.477Z,18.95
2023-05-23T17:49:45.016Z,18.30
2023-05-23T17:52:14.781Z,19.02
2023-05-23T17:54:41.978Z,17.30
2023-05-23T17:57:11.295Z,16.05
2023-05-23T18:03:38.334Z,16.58
2023-05-23T18:06:05.119Z,18.58
2023-05-23T18:08:31.678Z,17.00
2023-05-23T18:10:58.214Z,17.05
2023-05-23T18:13:24.771Z,18.33
2023-05-23T18:15:51.279Z,16.88
2023-05-23T18:18:18.288Z,16.33
2023-05-23T18:20:45.261Z,19.23
2023-05-23T18:23:12.052Z,16.48
2023-05-23T18:25:41.879Z,18.35
2023-05-23T18:28:11.741Z,17.63
2023-05-23T18:30:40.897Z,18.20
2023-05-23T18:33:10.364Z,17.27
2023-05-23T18:35:37.165Z,17.55
2023-05-23T18:38:37.220Z,19.38
2023-05-23T18:41:29.432Z,18.75
2023-05-23T18:50:48.031Z,19.02
2023-05-23T18:53:19.095Z,17.35
2023-05-23T18:55:45.881Z,16.90
2023-05-23T18:58:12.582Z,17.38
2023-05-23T19:00:44.505Z,16.85
2023-05-23T19:03:11.693Z,17.45
2023-05-23T19:05:40.683Z,16.67
2023-05-23T19:08:07.251Z,18.08
2023-05-23T19:10:33.744Z,17.33
2023-05-23T19:13:01.162Z,16.90
2023-05-23T19:15:27.800Z,17.00
2023-05-23T19:17:54.299Z,16.27
2023-05-23T19:20:20.939Z,14.98
2023-05-23T19:23:38.101Z,15.60
2023-05-23T19:26:04.748Z,15.65
2023-05-23T19:28:31.290Z,15.50
2023-05-23T19:30:57.874Z,14.57
2023-05-23T19:33:24.408Z,15.35
2023-05-23T19:35:51.648Z,14.77
2023-05-23T19:38:18.664Z,16.30
2023-05-23T19:40:47.027Z,15.82
2023-05-23T19:43:13.568Z,16.95
2023-05-23T19:45:43.250Z,15.55
2023-05-23T19:48:12.561Z,14.70
2023-05-23T19:50:41.082Z,14.35
2023-05-23T19:53:07.655Z,12.50
2023-05-23T19:55:34.925Z,14.15
2023-05-23T19:58:02.315Z,14.13
2023-05-23T20:00:28.955Z,13.13
2023-05-23T20:02:59.800Z,13.18
2023-05-23T20:05:26.513Z,13.10
2023-05-23T20:07:53.121Z,12.50
2023-05-23T20:10:19.784Z,12.80
2023-05-23T20:12:47.910Z,12.45
2023-05-23T20:15:15.896Z,12.05
2023-05-23T20:17:44.417Z,12.18
2023-05-23T20:20:13.919Z,12.45
2023-05-23T20:22:43.170Z,12.70
2023-05-23T20:25:13.343Z,13.40
2023-05-23T20:27:43.354Z,12.02
2023-05-23T20:30:13.754Z,11.38
2023-05-23T20:32:45.504Z,11.23
2023-05-23T20:35:12.051Z,11.30
2023-05-23T20:37:42.946Z,11.13
2023-05-23T20:40:13.811Z,10.75
2023-05-23T20:42:45.241Z,10.70
2023-05-23T20:45:15.657Z,11.98
2023-05-23T20:47:42.794Z,11.43
2023-05-23T20:50:14.673Z,10.68
2023-05-23T20:52:44.241Z,10.80
2023-05-23T20:55:12.087Z,11.85
2023-05-23T20:57:38.631Z,11.13
2023-05-23T21:00:24.346Z,11.70
2023-05-23T21:02:51.003Z,10.63
2023-05-23T21:05:17.691Z,11.30
2023-05-23T21:07:44.309Z,11.85
2023-05-23T21:10:13.988Z,12.10
2023-05-23T21:12:46.918Z,12.43
2023-05-23T21:15:13.449Z,10.85
2023-05-23T21:17:42.940Z,11.80
2023-05-23T21:20:12.767Z,11.48
2023-05-23T21:22:39.652Z,11.35
2023-05-23T21:25:06.421Z,11.70
2023-05-23T21:27:34.198Z,11.23
2023-05-23T21:30:00.787Z,11.57
2023-05-23T21:32:27.465Z,11.57
2023-05-23T21:34:54.084Z,10.75
2023-05-23T21:37:20.683Z,11.70
2023-05-23T21:39:51.973Z,11.73
2023-05-23T21:42:20.858Z,11.25
2023-05-23T21:44:47.766Z,11.45
2023-05-23T21:47:14.336Z,10.77
2023-05-23T21:49:43.234Z,11.65
2023-05-23T21:52:10.023Z,11.65
2023-05-23T21:54:36.547Z,10.40
2023-05-23T21:57:03.173Z,10.13
2023-05-23T21:59:29.840Z,11.88
2023-05-23T22:01:56.499Z,10.00
2023-05-23T22:04:23.136Z,10.30
2023-05-23T22:06:49.658Z,10.38
2023-05-23T22:09:16.320Z,10.85
2023-05-23T22:11:47.401Z,11.32
2023-05-23T22:14:16.764Z,10.77
2023-05-23T22:16:46.395Z,9.95
2023-05-23T22:19:15.238Z,10.30
2023-05-23T22:21:41.779Z,11.07
2023-05-23T22:24:08.334Z,11.25
2023-05-23T22:26:35.003Z,10.38
2023-05-23T22:29:02.149Z,10.73
2023-05-23T22:31:28.958Z,11.05
2023-05-23T22:33:55.912Z,11.75
2023-05-23T22:36:22.494Z,10.13
2023-05-23T22:38:49.350Z,9.70
2023-05-23T22:41:19.054Z,8.15
2023-05-23T22:43:48.941Z,8.15
2023-05-23T22:46:18.634Z,8.27
2023-05-23T22:48:47.705Z,9.68
2023-05-23T22:51:17.165Z,9.15
2023-05-23T22:53:43.898Z,6.85
2023-05-23T22:56:10.671Z,6.25
2023-05-23T22:58:37.252Z,8.10
2023-05-23T23:01:03.803Z,10.43
2023-05-23T23:03:30.490Z,7.60
2023-05-23T23:05:57.562Z,7.60
2023-05-23T23:08:24.134Z,6.68
2023-05-23T23:10:50.668Z,7.28
2023-05-23T23:13:20.260Z,6.60
2023-05-23T23:15:50.259Z,5.90
2023-05-23T23:18:19.406Z,6.78
2023-05-23T23:20:48.043Z,6.88
2023-05-23T23:23:14.747Z,6.57
2023-05-23T23:25:41.290Z,6.25
2023-05-23T23:28:07.834Z,6.70
2023-05-23T23:30:34.332Z,5.88
2023-05-23T23:33:00.949Z,6.18
2023-05-23T23:35:27.584Z,5.90
2023-05-23T23:37:54.124Z,5.80
2023-05-23T23:40:20.644Z,6.63
2023-05-23T23:42:49.454Z,6.45
2023-05-23T23:45:15.996Z,5.38
2023-05-23T23:47:42.772Z,5.75
2023-05-23T23:50:09.553Z,5.93
2023-05-23T23:52:39.016Z,6.13
2023-05-23T23:55:06.489Z,5.47
2023-05-23T23:57:33.025Z,5.95
2023-05-23T23:59:59.570Z,5.90
